Time;durP1;ratioP1;P1;durP2;ratioP2;P2;SDS_P1;SDS_P2;PMS_P1;PMS_P2;Temp;Humidity;BMP_temperature;BMP_pressure;BME280_temperature;BME280_humidity;BME280_pressure;Samples;Min_cycle;Max_cycle;Signal;HPM_P1;HPM_P2
2022/07/07 00:01:26;;;;;;;2.05;1.63;;;20.70;69.10;;;;;;5069070;28;20057;-66
2022/07/07 00:03:53;;;;;;;3.33;1.70;;;20.70;69.20;;;;;;5067650;28;20024;-66
2022/07/07 00:06:19;;;;;;;2.78;1.75;;;20.70;69.50;;;;;;5068223;28;20020;-65
2022/07/07 00:08:47;;;;;;;2.22;1.63;;;20.60;69.60;;;;;;5068378;28;20036;-65
2022/07/07 00:11:15;;;;;;;1.95;1.77;;;20.60;70.00;;;;;;5068984;28;20025;-65
2022/07/07 00:13:41;;;;;;;1.52;1.20;;;20.60;70.00;;;;;;5067850;28;20253;-65
2022/07/07 00:16:07;;;;;;;1.45;1.10;;;20.60;69.90;;;;;;5068325;28;20150;-66
2022/07/07 00:18:34;;;;;;;4.10;1.42;;;20.60;69.60;;;;;;5068162;28;20036;-65
2022/07/07 00:21:00;;;;;;;1.77;1.65;;;20.70;69.50;;;;;;5068550;28;20020;-66
2022/07/07 00:23:26;;;;;;;1.60;1.33;;;20.70;69.70;;;;;;5070772;28;20051;-65
2022/07/07 00:25:52;;;;;;;2.42;1.23;;;20.60;69.90;;;;;;5071655;28;20028;-65
2022/07/07 00:28:17;;;;;;;1.40;1.15;;;20.60;69.80;;;;;;5068224;28;20028;-65
2022/07/07 00:30:43;;;;;;;3.65;1.85;;;20.60;69.80;;;;;;5081199;28;20437;-66
2022/07/07 00:33:08;;;;;;;1.52;1.42;;;20.60;69.80;;;;;;5054417;28;20020;-72
2022/07/07 00:35:34;;;;;;;1.58;1.48;;;20.70;69.90;;;;;;5071429;28;20780;-72
2022/07/07 00:38:00;;;;;;;2.42;1.60;;;20.70;69.80;;;;;;5066355;28;20032;-72
2022/07/07 00:40:26;;;;;;;2.33;1.83;;;20.70;69.90;;;;;;5077282;28;20044;-73
2022/07/07 00:42:51;;;;;;;1.83;1.38;;;20.60;70.00;;;;;;5068440;28;20040;-72
2022/07/07 00:45:17;;;;;;;2.65;1.60;;;20.60;70.10;;;;;;5046146;28;20025;-72
2022/07/07 00:47:43;;;;;;;1.83;1.67;;;20.60;70.00;;;;;;5063437;28;20074;-72
2022/07/07 00:50:10;;;;;;;1.25;1.17;;;20.60;70.00;;;;;;5099823;28;20040;-72
2022/07/07 00:52:36;;;;;;;1.92;1.73;;;20.60;70.30;;;;;;5073014;28;20498;-72
2022/07/07 00:55:02;;;;;;;2.92;1.48;;;20.60;70.40;;;;;;5074997;28;20521;-72
2022/07/07 00:57:29;;;;;;;2.92;2.17;;;20.60;70.50;;;;;;5072203;28;20048;-72
2022/07/07 00:59:57;;;;;;;1.55;1.45;;;20.60;70.40;;;;;;5077364;28;20664;-72
2022/07/07 01:02:23;;;;;;;1.73;1.40;;;20.70;70.30;;;;;;5072492;28;20104;-72
2022/07/07 01:04:49;;;;;;;2.15;1.42;;;20.70;70.20;;;;;;5074855;28;20111;-72
2022/07/07 01:07:15;;;;;;;1.73;1.58;;;20.70;70.30;;;;;;5070263;28;20135;-72
2022/07/07 01:09:43;;;;;;;2.72;1.88;;;20.70;70.60;;;;;;5053731;28;20059;-72
2022/07/07 01:12:08;;;;;;;2.63;1.52;;;20.70;70.60;;;;;;5071994;28;20028;-72
2022/07/07 01:14:34;;;;;;;2.55;1.90;;;20.70;70.80;;;;;;5070671;28;20043;-71
2022/07/07 01:17:00;;;;;;;2.50;1.10;;;20.70;71.30;;;;;;5069560;28;20040;-71
2022/07/07 01:19:26;;;;;;;1.30;1.20;;;20.60;71.40;;;;;;5071822;28;20040;-72
2022/07/07 01:22:06;;;;;;;2.78;1.48;;;20.70;71.50;;;;;;5070720;28;20028;-71
2022/07/07 01:24:32;;;;;;;1.40;1.20;;;20.70;71.70;;;;;;5071288;28;20078;-71
2022/07/07 01:27:07;;;;;;;1.52;1.30;;;20.70;71.70;;;;;;5070503;28;20016;-71
2022/07/07 01:29:36;;;;;;;1.92;1.63;;;20.70;71.80;;;;;;5072260;28;20024;-72
2022/07/07 01:32:02;;;;;;;2.65;1.42;;;20.60;72.20;;;;;;5073411;28;20123;-71
2022/07/07 01:34:28;;;;;;;2.17;1.60;;;20.60;72.70;;;;;;5070330;28;20390;-72
2022/07/07 01:36:53;;;;;;;2.05;1.60;;;20.60;73.00;;;;;;5068979;28;20104;-72
2022/07/07 01:39:19;;;;;;;3.53;2.05;;;20.50;73.90;;;;;;5071260;28;20064;-71
2022/07/07 01:41:44;;;;;;;4.53;2.08;;;20.50;73.70;;;;;;5070550;28;20071;-65
2022/07/07 01:44:10;;;;;;;2.55;1.52;;;20.40;73.50;;;;;;5073158;28;20339;-65
2022/07/07 01:46:36;;;;;;;4.00;2.45;;;20.50;73.40;;;;;;5069832;28;20033;-65
2022/07/07 01:49:01;;;;;;;3.00;2.03;;;20.50;73.40;;;;;;5083758;28;20474;-66
2022/07/07 01:51:27;;;;;;;2.63;1.55;;;20.40;73.50;;;;;;5082175;28;20029;-65
2022/07/07 01:53:53;;;;;;;2.10;1.73;;;20.40;73.40;;;;;;5070392;28;20108;-65
2022/07/07 01:56:18;;;;;;;4.63;1.90;;;20.50;73.70;;;;;;5057286;28;20451;-65
2022/07/07 01:58:44;;;;;;;1.75;1.35;;;20.50;73.70;;;;;;5069899;28;20040;-65
2022/07/07 02:01:10;;;;;;;1.95;1.40;;;20.40;73.90;;;;;;5069983;28;20041;-65
2022/07/07 02:03:35;;;;;;;2.25;2.05;;;20.40;74.00;;;;;;5073389;28;20041;-65
2022/07/07 02:06:01;;;;;;;2.85;2.05;;;20.40;74.30;;;;;;5070553;28;20027;-65
2022/07/07 02:08:27;;;;;;;1.92;1.73;;;20.30;74.60;;;;;;5069619;28;20043;-72
2022/07/07 02:13:36;;;;;;;2.45;1.50;;;20.20;75.00;;;;;;5069982;28;20086;-72
2022/07/07 02:16:02;;;;;;;3.13;1.52;;;20.20;75.30;;;;;;5079804;28;20032;-72
2022/07/07 02:18:32;;;;;;;2.05;1.15;;;20.20;75.10;;;;;;5070951;28;20028;-72
2022/07/07 02:20:58;;;;;;;1.10;1.00;;;20.20;74.80;;;;;;5070701;28;20501;-72
2022/07/07 02:23:24;;;;;;;1.48;1.10;;;20.30;74.60;;;;;;5069028;28;20024;-72
2022/07/07 02:25:49;;;;;;;1.17;1.08;;;20.30;74.40;;;;;;5069115;28;20017;-72
2022/07/07 02:28:15;;;;;;;0.95;0.85;;;20.30;74.20;;;;;;5070619;28;20081;-72
2022/07/07 02:30:41;;;;;;;2.20;1.17;;;20.40;74.10;;;;;;5069585;28;20111;-72
2022/07/07 02:33:06;;;;;;;2.13;1.08;;;20.40;74.20;;;;;;5071013;28;20036;-72
2022/07/07 02:35:32;;;;;;;0.80;0.80;;;20.30;74.10;;;;;;5078816;28;20036;-72
2022/07/07 02:37:58;;;;;;;1.23;1.10;;;20.30;74.40;;;;;;5067480;28;20028;-72
2022/07/07 02:40:24;;;;;;;1.15;1.05;;;20.20;74.60;;;;;;5070319;28;20052;-72
2022/07/07 02:42:49;;;;;;;0.73;0.73;;;20.10;74.80;;;;;;5070681;28;20033;-72
2022/07/07 02:45:15;;;;;;;1.15;0.70;;;20.00;74.90;;;;;;5068943;28;20033;-72
2022/07/07 02:47:41;;;;;;;7.10;0.70;;;20.00;75.20;;;;;;5070433;28;20040;-73
2022/07/07 02:50:07;;;;;;;0.82;0.70;;;19.90;75.30;;;;;;5069758;28;20032;-73
2022/07/07 02:52:32;;;;;;;0.80;0.40;;;19.90;75.20;;;;;;5080395;28;20495;-73
2022/07/07 02:54:58;;;;;;;4.20;0.90;;;19.90;75.30;;;;;;5067825;28;20109;-66
2022/07/07 02:57:24;;;;;;;0.57;0.57;;;19.80;75.40;;;;;;5070272;28;20021;-66
2022/07/07 02:59:50;;;;;;;0.45;0.45;;;19.70;75.50;;;;;;5068850;28;20044;-66
2022/07/07 03:02:16;;;;;;;0.52;0.50;;;19.70;75.80;;;;;;5069900;28;20063;-73
2022/07/07 03:04:42;;;;;;;0.95;0.50;;;19.60;76.00;;;;;;5068027;28;20056;-72
2022/07/07 03:07:08;;;;;;;3.75;0.70;;;19.50;76.30;;;;;;5069213;28;20078;-65
2022/07/07 03:09:34;;;;;;;0.38;0.38;;;19.50;76.40;;;;;;5069389;28;20395;-73
2022/07/07 03:11:59;;;;;;;0.30;0.30;;;19.50;76.40;;;;;;5069562;28;20035;-73
2022/07/07 03:14:25;;;;;;;0.85;0.45;;;19.50;76.30;;;;;;5052049;28;20032;-73
2022/07/07 03:16:51;;;;;;;0.32;0.32;;;19.50;76.40;;;;;;5067232;28;20414;-73
2022/07/07 03:19:17;;;;;;;2.13;0.75;;;19.50;76.70;;;;;;5074186;28;20032;-66
2022/07/07 03:21:42;;;;;;;0.50;0.50;;;19.50;76.00;;;;;;5068087;28;20567;-73
2022/07/07 03:24:08;;;;;;;0.52;0.47;;;19.50;76.10;;;;;;5068402;28;20368;-73
2022/07/07 03:26:34;;;;;;;0.57;0.47;;;19.50;76.20;;;;;;5068033;28;20068;-73
2022/07/07 03:28:59;;;;;;;0.70;0.63;;;19.50;77.00;;;;;;5069713;28;20028;-74
2022/07/07 03:31:25;;;;;;;0.85;0.70;;;19.40;76.60;;;;;;5069927;28;20056;-65
2022/07/07 03:33:51;;;;;;;2.58;0.77;;;19.40;76.70;;;;;;5068613;28;20040;-66
2022/07/07 03:36:17;;;;;;;1.10;0.77;;;19.30;77.00;;;;;;5062768;28;20025;-67
2022/07/07 03:38:42;;;;;;;2.05;0.65;;;19.30;77.10;;;;;;5051107;28;20525;-67
2022/07/07 03:41:08;;;;;;;0.22;0.22;;;19.30;77.10;;;;;;5068880;28;20095;-67
2022/07/07 03:43:34;;;;;;;0.73;0.50;;;19.30;77.20;;;;;;5075334;28;20486;-66
2022/07/07 03:45:59;;;;;;;0.60;0.60;;;19.30;77.30;;;;;;5067540;28;20475;-65
2022/07/07 03:48:25;;;;;;;0.68;0.68;;;19.30;77.50;;;;;;5075996;28;20106;-66
2022/07/07 03:50:50;;;;;;;0.60;0.60;;;19.30;77.50;;;;;;5068258;28;20032;-66
2022/07/07 03:53:16;;;;;;;0.47;0.47;;;19.30;77.60;;;;;;5072136;28;20032;-65
2022/07/07 03:55:42;;;;;;;0.80;0.77;;;19.30;77.60;;;;;;5067852;28;20028;-65
2022/07/07 03:58:07;;;;;;;1.17;0.80;;;19.30;77.60;;;;;;5059869;28;20064;-65
2022/07/07 04:00:33;;;;;;;1.10;1.00;;;19.30;77.50;;;;;;5061091;28;20053;-65
2022/07/07 04:02:59;;;;;;;0.65;0.65;;;19.30;77.40;;;;;;5055084;28;20104;-65
2022/07/07 04:05:24;;;;;;;0.95;0.93;;;19.40;77.40;;;;;;5046803;28;20055;-65
2022/07/07 04:07:50;;;;;;;2.10;0.90;;;19.30;77.80;;;;;;5069286;28;20041;-66
2022/07/07 04:10:16;;;;;;;0.68;0.63;;;19.20;78.00;;;;;;5064118;28;20064;-65
2022/07/07 04:12:41;;;;;;;0.95;0.50;;;19.20;78.30;;;;;;5068379;28;20395;-65
2022/07/07 04:15:08;;;;;;;3.75;1.10;;;19.20;78.50;;;;;;5068199;28;20032;-66
2022/07/07 04:17:33;;;;;;;4.05;0.80;;;19.10;78.60;;;;;;5063438;28;20138;-66
2022/07/07 04:19:59;;;;;;;0.80;0.70;;;19.10;78.50;;;;;;5066411;28;20046;-65
2022/07/07 04:22:25;;;;;;;0.82;0.75;;;19.20;78.40;;;;;;5066750;28;20016;-65
2022/07/07 04:24:50;;;;;;;0.80;0.80;;;19.20;78.40;;;;;;5064464;28;20037;-66
2022/07/07 04:27:16;;;;;;;1.63;0.52;;;19.20;78.40;;;;;;5061820;28;20498;-66
2022/07/07 04:29:42;;;;;;;1.55;0.82;;;19.20;78.40;;;;;;5052799;28;20058;-65
2022/07/07 04:32:08;;;;;;;0.80;0.60;;;19.20;78.30;;;;;;5061602;28;20055;-65
2022/07/07 04:34:33;;;;;;;0.98;0.63;;;19.20;78.40;;;;;;5060572;28;20036;-65
2022/07/07 04:36:59;;;;;;;1.88;0.70;;;19.20;78.60;;;;;;5065532;28;20052;-74
2022/07/07 04:39:25;;;;;;;0.30;0.30;;;19.20;78.70;;;;;;5064567;28;20028;-73
2022/07/07 04:41:50;;;;;;;0.68;0.50;;;19.20;78.70;;;;;;5068418;28;20050;-73
2022/07/07 04:44:16;;;;;;;0.75;0.63;;;19.10;78.70;;;;;;5063762;28;20021;-73
2022/07/07 04:46:42;;;;;;;0.55;0.40;;;19.10;78.90;;;;;;5063830;28;20487;-74
2022/07/07 04:49:07;;;;;;;0.40;0.40;;;19.00;79.10;;;;;;5065919;28;20025;-74
2022/07/07 04:51:33;;;;;;;0.40;0.40;;;19.00;79.10;;;;;;5062368;28;20049;-74
2022/07/07 04:53:59;;;;;;;0.32;0.32;;;19.00;79.10;;;;;;5067208;28;20029;-73
2022/07/07 04:56:24;;;;;;;0.45;0.45;;;19.00;79.00;;;;;;5049319;28;20028;-73
2022/07/07 04:58:50;;;;;;;0.77;0.70;;;19.00;78.90;;;;;;5074023;28;20291;-74
2022/07/07 05:01:17;;;;;;;1.00;0.45;;;19.00;78.80;;;;;;5066161;28;20105;-66
2022/07/07 05:03:42;;;;;;;0.40;0.40;;;19.00;78.80;;;;;;5067182;28;20099;-66
2022/07/07 05:06:08;;;;;;;0.20;0.20;;;19.10;78.60;;;;;;5072397;28;20043;-66
2022/07/07 05:08:34;;;;;;;0.52;0.47;;;19.10;78.60;;;;;;5078118;28;20402;-66
2022/07/07 05:11:00;;;;;;;1.33;0.57;;;19.10;78.50;;;;;;5070585;28;20039;-66
2022/07/07 05:13:26;;;;;;;1.85;0.50;;;19.10;78.40;;;;;;5070825;28;20032;-66
2022/07/07 05:15:51;;;;;;;0.40;0.40;;;19.20;78.20;;;;;;5067926;28;20020;-66
2022/07/07 05:18:17;;;;;;;0.65;0.47;;;19.20;78.20;;;;;;5068530;28;20391;-66
2022/07/07 05:20:43;;;;;;;2.50;0.85;;;19.20;78.40;;;;;;5049755;28;20047;-66
2022/07/07 05:23:09;;;;;;;0.30;0.30;;;19.20;78.50;;;;;;5065408;28;20028;-66
2022/07/07 05:25:35;;;;;;;1.45;0.60;;;19.20;78.60;;;;;;5065867;28;20034;-66
2022/07/07 05:28:00;;;;;;;0.60;0.38;;;19.20;78.60;;;;;;5065372;28;20040;-65
2022/07/07 05:30:26;;;;;;;0.50;0.50;;;19.20;78.40;;;;;;5062700;28;20021;-65
2022/07/07 05:32:51;;;;;;;0.50;0.50;;;19.20;78.50;;;;;;5065780;28;20037;-65
2022/07/07 05:35:17;;;;;;;0.30;0.30;;;19.00;78.70;;;;;;5065843;28;20032;-66
2022/07/07 05:37:43;;;;;;;0.85;0.60;;;19.00;78.80;;;;;;5069701;28;20056;-65
2022/07/07 05:40:09;;;;;;;0.52;0.52;;;18.90;78.80;;;;;;5068307;28;20040;-66
2022/07/07 05:42:35;;;;;;;0.35;0.35;;;18.90;78.70;;;;;;5069486;28;20021;-73
2022/07/07 05:45:01;;;;;;;0.60;0.60;;;18.90;78.70;;;;;;5072727;28;20391;-74
2022/07/07 05:47:26;;;;;;;12.95;0.82;;;19.00;78.60;;;;;;5069045;28;20025;-74
2022/07/07 05:49:52;;;;;;;1.75;0.82;;;19.10;78.60;;;;;;5081230;28;20600;-73
2022/07/07 05:52:18;;;;;;;3.90;0.70;;;19.10;78.50;;;;;;5067898;28;20574;-73
2022/07/07 05:54:44;;;;;;;5.28;1.00;;;19.10;78.60;;;;;;5063655;28;20033;-73
2022/07/07 05:57:09;;;;;;;0.43;0.35;;;19.20;78.30;;;;;;5043286;28;20039;-74
2022/07/07 05:59:36;;;;;;;2.28;0.65;;;19.20;78.20;;;;;;5089825;27;20155;-74
2022/07/07 06:02:01;;;;;;;0.98;0.80;;;19.20;77.70;;;;;;5066684;28;20037;-67
2022/07/07 06:04:27;;;;;;;0.98;0.45;;;19.10;77.60;;;;;;5061691;28;20036;-67
2022/07/07 06:06:53;;;;;;;0.70;0.70;;;19.10;77.60;;;;;;5064479;28;20024;-68
2022/07/07 06:09:19;;;;;;;4.40;0.68;;;19.10;77.50;;;;;;5059872;28;20486;-68
2022/07/07 06:11:44;;;;;;;1.48;0.45;;;19.10;77.40;;;;;;5064450;28;20053;-66
2022/07/07 06:14:10;;;;;;;0.70;0.40;;;19.20;77.30;;;;;;5070378;28;20064;-66
2022/07/07 06:16:39;;;;;;;4.28;1.40;;;19.20;77.20;;;;;;5064294;28;20060;-67
2022/07/07 06:19:09;;;;;;;1.60;0.73;;;19.30;77.10;;;;;;5065812;28;20029;-68
2022/07/07 06:21:35;;;;;;;1.52;0.70;;;19.30;77.10;;;;;;5058032;28;20033;-76
2022/07/07 06:24:01;;;;;;;5.15;0.77;;;19.20;77.00;;;;;;5065181;28;20025;-75
2022/07/07 06:26:27;;;;;;;2.30;0.82;;;19.20;76.90;;;;;;5053964;28;20028;-67
2022/07/07 06:28:53;;;;;;;0.77;0.63;;;19.20;77.00;;;;;;5065105;28;20065;-67
2022/07/07 06:31:18;;;;;;;3.50;1.00;;;19.20;77.00;;;;;;5068414;28;20040;-67
2022/07/07 06:33:44;;;;;;;1.20;0.70;;;19.10;77.00;;;;;;5065703;28;20025;-67
2022/07/07 06:36:10;;;;;;;1.30;0.50;;;19.20;77.00;;;;;;5054805;28;20047;-66
2022/07/07 06:38:35;;;;;;;4.40;0.68;;;19.20;76.80;;;;;;5067543;28;20082;-66
2022/07/07 06:41:01;;;;;;;1.50;0.80;;;19.10;76.60;;;;;;5067934;28;20033;-67
2022/07/07 06:43:27;;;;;;;0.73;0.73;;;19.10;76.60;;;;;;5063362;28;20021;-67
2022/07/07 06:45:52;;;;;;;0.98;0.70;;;19.10;76.50;;;;;;5062398;28;20439;-67
2022/07/07 06:48:18;;;;;;;0.55;0.45;;;19.10;76.40;;;;;;5066268;28;20056;-67
2022/07/07 06:50:44;;;;;;;1.27;0.80;;;19.10;76.30;;;;;;5065220;28;20081;-67
2022/07/07 06:53:10;;;;;;;0.75;0.52;;;19.10;76.40;;;;;;5047243;28;20124;-67
2022/07/07 06:55:36;;;;;;;0.50;0.50;;;19.10;76.50;;;;;;5063275;28;20033;-67
2022/07/07 06:58:04;;;;;;;0.40;0.40;;;19.10;77.10;;;;;;5058661;28;20052;-67
2022/07/07 07:00:30;;;;;;;0.43;0.38;;;19.20;76.70;;;;;;5063763;28;20794;-75
2022/07/07 07:02:56;;;;;;;1.05;0.50;;;19.20;76.30;;;;;;5056789;28;20107;-75
2022/07/07 07:05:22;;;;;;;1.05;0.70;;;19.30;76.00;;;;;;5064205;28;20103;-73
2022/07/07 07:07:48;;;;;;;0.38;0.38;;;19.40;75.80;;;;;;5066918;28;20768;-73
2022/07/07 07:10:15;;;;;;;0.75;0.65;;;19.50;75.90;;;;;;5068475;28;20077;-75
2022/07/07 07:12:40;;;;;;;0.70;0.50;;;19.70;76.40;;;;;;5065169;28;20367;-76
2022/07/07 07:15:07;;;;;;;0.68;0.68;;;19.80;75.30;;;;;;5058494;28;20074;-75
2022/07/07 07:17:34;;;;;;;2.33;1.17;;;19.90;75.10;;;;;;5061656;28;20085;-75
2022/07/07 07:20:00;;;;;;;1.27;0.63;;;19.90;74.90;;;;;;5063001;28;20075;-75
2022/07/07 07:22:26;;;;;;;0.85;0.60;;;19.90;74.70;;;;;;5059849;28;20479;-75
2022/07/07 07:24:52;;;;;;;0.50;0.50;;;19.80;74.60;;;;;;5081723;28;20032;-75
2022/07/07 07:27:18;;;;;;;4.28;0.82;;;19.90;74.80;;;;;;5066683;28;20105;-75
2022/07/07 07:29:44;;;;;;;2.15;0.50;;;19.90;74.80;;;;;;5062833;28;20499;-74
2022/07/07 07:32:09;;;;;;;0.60;0.50;;;19.90;74.60;;;;;;5062928;28;20021;-75
2022/07/07 07:34:35;;;;;;;1.05;0.57;;;19.90;74.70;;;;;;5063051;28;20044;-74
2022/07/07 07:37:01;;;;;;;0.50;0.50;;;19.80;74.70;;;;;;5066606;28;20043;-74
2022/07/07 07:39:27;;;;;;;0.40;0.40;;;19.60;74.80;;;;;;5065919;28;20093;-75
2022/07/07 07:41:53;;;;;;;1.63;0.63;;;19.60;75.30;;;;;;5064003;28;20051;-75
2022/07/07 07:47:04;;;;;;;1.17;0.35;;;19.60;75.80;;;;;;5068246;28;20110;-66
2022/07/07 07:49:30;;;;;;;7.70;1.17;;;19.60;75.60;;;;;;5061870;28;20055;-74
2022/07/07 07:51:56;;;;;;;0.20;0.20;;;19.50;75.60;;;;;;5055668;28;20036;-74
2022/07/07 07:54:21;;;;;;;0.73;0.45;;;19.40;75.80;;;;;;5064003;28;20036;-74
2022/07/07 07:56:47;;;;;;;1.77;0.68;;;19.40;76.00;;;;;;5062208;28;20077;-67
2022/07/07 07:59:14;;;;;;;0.88;0.82;;;19.50;76.10;;;;;;5062446;28;20055;-67
2022/07/07 08:01:40;;;;;;;2.10;0.57;;;19.60;76.30;;;;;;5066976;28;20033;-67
2022/07/07 08:04:05;;;;;;;0.55;0.55;;;19.80;76.00;;;;;;5067573;28;20059;-66
2022/07/07 08:06:31;;;;;;;0.35;0.25;;;20.00;75.70;;;;;;5066484;28;20059;-73
2022/07/07 08:08:57;;;;;;;1.23;0.57;;;20.10;75.30;;;;;;5081146;28;20056;-66
2022/07/07 08:11:23;;;;;;;1.25;0.30;;;20.00;75.00;;;;;;5071441;28;20031;-66
2022/07/07 08:13:48;;;;;;;0.57;0.55;;;19.90;74.70;;;;;;5067450;28;20097;-66
2022/07/07 08:16:14;;;;;;;0.60;0.30;;;19.90;75.10;;;;;;5071779;28;20056;-74
2022/07/07 08:18:40;;;;;;;4.28;0.45;;;19.90;75.00;;;;;;5055734;28;20075;-73
2022/07/07 08:21:05;;;;;;;1.05;0.57;;;20.00;75.00;;;;;;5062123;28;20037;-74
2022/07/07 08:23:31;;;;;;;0.65;0.57;;;20.10;74.60;;;;;;5069129;28;20107;-74
2022/07/07 08:25:57;;;;;;;0.98;0.70;;;20.10;74.60;;;;;;5067966;28;20102;-73
2022/07/07 08:28:23;;;;;;;0.60;0.50;;;20.00;74.60;;;;;;5066204;28;20035;-73
2022/07/07 08:30:48;;;;;;;0.55;0.30;;;19.90;74.80;;;;;;5065873;28;20075;-72
2022/07/07 08:33:15;;;;;;;0.60;0.40;;;19.90;75.00;;;;;;5067766;28;20093;-65
2022/07/07 08:35:41;;;;;;;1.40;0.40;;;19.80;75.20;;;;;;5069038;28;20041;-66
2022/07/07 08:38:07;;;;;;;0.90;0.85;;;19.90;75.50;;;;;;5067144;28;20107;-66
2022/07/07 08:40:32;;;;;;;0.73;0.57;;;20.00;75.40;;;;;;5068360;28;20121;-66
2022/07/07 08:42:59;;;;;;;0.50;0.50;;;20.30;75.20;;;;;;5063539;28;20043;-66
2022/07/07 08:45:25;;;;;;;0.70;0.40;;;20.50;74.50;;;;;;5067068;28;20414;-66
2022/07/07 08:47:51;;;;;;;3.40;0.80;;;20.50;74.50;;;;;;5064017;28;20067;-66
2022/07/07 08:50:17;;;;;;;2.53;1.02;;;20.40;74.60;;;;;;5079045;28;20036;-73
2022/07/07 08:52:45;;;;;;;1.65;0.60;;;20.50;74.70;;;;;;5064845;28;20457;-73
2022/07/07 08:55:15;;;;;;;0.40;0.40;;;20.70;74.30;;;;;;5065676;28;20032;-66
2022/07/07 08:57:42;;;;;;;1.25;0.45;;;20.80;74.10;;;;;;5078903;28;20048;-66
2022/07/07 09:00:08;;;;;;;1.02;0.52;;;20.80;73.20;;;;;;5075715;28;20098;-66
2022/07/07 09:02:34;;;;;;;2.10;0.63;;;20.70;73.10;;;;;;5068905;28;20040;-66
2022/07/07 09:05:00;;;;;;;0.80;0.30;;;20.60;73.10;;;;;;5074218;28;20036;-66
2022/07/07 09:07:50;;;;;;;0.50;0.45;;;20.60;72.80;;;;;;5067117;28;20472;-66
2022/07/07 09:10:33;;;;;;;0.35;0.35;;;20.50;72.70;;;;;;5065981;28;20558;-73
2022/07/07 09:13:00;;;;;;;0.63;0.40;;;20.40;72.30;;;;;;5068636;28;20108;-66
2022/07/07 09:15:26;;;;;;;0.25;0.25;;;20.20;72.60;;;;;;5070384;28;20020;-66
2022/07/07 09:17:53;;;;;;;0.20;0.20;;;20.20;72.90;;;;;;5071120;28;20079;-68
2022/07/07 09:20:19;;;;;;;1.17;0.35;;;20.20;72.90;;;;;;5062203;28;20165;-73
2022/07/07 09:22:46;;;;;;;0.30;0.30;;;20.30;73.00;;;;;;5070234;28;20411;-73
2022/07/07 09:25:13;;;;;;;1.48;0.50;;;20.30;72.70;;;;;;5067855;28;20438;-74
2022/07/07 09:27:55;;;;;;;0.93;0.47;;;20.40;73.30;;;;;;5071882;28;20020;-66
2022/07/07 09:30:43;;;;;;;0.30;0.30;;;20.50;72.20;;;;;;5062886;28;20119;-66
2022/07/07 09:33:10;;;;;;;2.65;0.40;;;20.50;72.10;;;;;;5070841;28;20102;-66
2022/07/07 09:38:23;;;;;;;0.30;0.30;;;20.80;72.10;;;;;;5065078;28;20048;-66
2022/07/07 09:41:04;;;;;;;1.75;0.57;;;21.10;71.70;;;;;;5070745;28;20406;-73
2022/07/07 09:43:32;;;;;;;0.20;0.20;;;21.30;71.20;;;;;;5061063;28;20028;-73
2022/07/07 09:46:20;;;;;;;1.98;0.68;;;21.40;70.80;;;;;;5065567;28;20348;-73
2022/07/07 09:48:47;;;;;;;7.00;0.43;;;21.30;70.40;;;;;;5073782;28;20027;-73
2022/07/07 09:51:14;;;;;;;0.45;0.35;;;21.10;70.50;;;;;;5069642;28;20433;-73
2022/07/07 09:54:02;;;;;;;2.33;0.55;;;21.00;70.80;;;;;;5075483;28;20021;-73
2022/07/07 09:56:29;;;;;;;0.30;0.30;;;21.00;70.20;;;;;;5071136;28;20024;-74
2022/07/07 09:58:55;;;;;;;0.95;0.60;;;21.00;70.50;;;;;;5071995;28;20108;-73
2022/07/07 10:01:27;;;;;;;1.13;0.55;;;21.10;70.30;;;;;;5071638;28;20075;-67
2022/07/07 10:04:01;;;;;;;0.43;0.38;;;21.40;70.10;;;;;;5080002;28;20030;-66
2022/07/07 10:06:29;;;;;;;0.50;0.50;;;21.50;69.00;;;;;;5063072;28;20419;-66
2022/07/07 10:08:57;;;;;;;0.30;0.30;;;21.50;68.80;;;;;;5068356;28;20039;-66
2022/07/07 10:11:32;;;;;;;0.40;0.40;;;21.40;68.70;;;;;;5062060;28;20028;-66
2022/07/07 10:14:22;;;;;;;0.30;0.30;;;21.30;69.10;;;;;;5066588;28;20032;-66
2022/07/07 10:16:49;;;;;;;1.73;0.45;;;21.20;69.50;;;;;;5072275;28;20047;-73
2022/07/07 10:19:17;;;;;;;0.30;0.30;;;21.10;69.20;;;;;;5066762;28;20040;-73
2022/07/07 10:21:46;;;;;;;0.93;0.40;;;21.00;69.40;;;;;;5066470;28;20032;-73
2022/07/07 10:24:15;;;;;;;2.05;0.65;;;21.10;69.50;;;;;;5073830;28;20094;-74
2022/07/07 10:26:52;;;;;;;0.30;0.30;;;21.20;68.80;;;;;;5073392;28;20044;-73
2022/07/07 10:29:39;;;;;;;0.75;0.30;;;21.30;68.70;;;;;;5067213;28;20016;-73
2022/07/07 10:32:07;;;;;;;0.80;0.20;;;21.30;68.80;;;;;;5067740;28;20336;-73
2022/07/07 10:34:33;;;;;;;0.30;0.30;;;21.30;68.50;;;;;;5064067;28;20024;-72
2022/07/07 10:37:10;;;;;;;2.55;0.73;;;21.30;68.70;;;;;;5069540;28;20499;-73
2022/07/07 10:39:45;;;;;;;0.32;0.32;;;21.30;68.30;;;;;;5053556;28;20139;-66
2022/07/07 10:42:16;;;;;;;0.65;0.40;;;21.10;68.60;;;;;;5063730;28;20032;-66
2022/07/07 10:44:51;;;;;;;1.15;0.50;;;21.20;68.70;;;;;;5061856;28;20025;-66
2022/07/07 10:47:16;;;;;;;0.30;0.30;;;21.20;68.70;;;;;;5064031;28;20032;-66
2022/07/07 10:49:45;;;;;;;0.20;0.20;;;21.20;68.80;;;;;;5069179;28;20027;-73
2022/07/07 10:52:12;;;;;;;0.70;0.40;;;21.20;69.10;;;;;;5066616;28;20044;-73
2022/07/07 10:54:41;;;;;;;0.40;0.30;;;21.10;69.50;;;;;;5062191;28;20043;-72
2022/07/07 10:57:24;;;;;;;0.95;0.30;;;21.10;69.90;;;;;;5061399;28;20042;-73
2022/07/07 11:00:06;;;;;;;1.02;0.30;;;21.00;70.00;;;;;;5067879;28;20041;-73
2022/07/07 11:02:34;;;;;;;1.02;0.50;;;21.10;70.00;;;;;;5064225;28;20024;-73
2022/07/07 11:05:03;;;;;;;0.52;0.30;;;21.30;69.80;;;;;;5065209;28;20025;-72
2022/07/07 11:07:29;;;;;;;0.82;0.60;;;21.60;69.30;;;;;;5065366;28;20016;-73
2022/07/07 11:10:13;;;;;;;2.35;0.43;;;22.10;68.60;;;;;;5065980;28;20035;-66
2022/07/07 11:12:45;;;;;;;0.35;0.35;;;22.50;67.40;;;;;;5060610;28;20090;-66
2022/07/07 11:15:23;;;;;;;0.50;0.50;;;22.60;66.50;;;;;;5064764;28;20056;-66
2022/07/07 11:17:52;;;;;;;0.30;0.30;;;22.60;66.70;;;;;;5065718;28;20071;-73
2022/07/07 11:20:23;;;;;;;2.28;0.50;;;22.40;66.70;;;;;;5067581;28;20634;-66
2022/07/07 11:22:51;;;;;;;0.73;0.50;;;22.30;67.00;;;;;;5066952;28;20041;-73
2022/07/07 11:25:20;;;;;;;0.40;0.40;;;22.10;67.30;;;;;;5068161;28;20059;-74
2022/07/07 11:27:49;;;;;;;0.50;0.50;;;22.00;68.10;;;;;;5061904;28;20032;-74
2022/07/07 11:30:20;;;;;;;1.45;0.40;;;22.00;68.40;;;;;;5061792;28;20035;-73
2022/07/07 11:32:45;;;;;;;0.98;0.63;;;22.00;67.90;;;;;;5061644;28;20381;-74
2022/07/07 11:35:12;;;;;;;1.95;0.57;;;22.10;68.10;;;;;;5066829;28;20033;-72
2022/07/07 11:37:40;;;;;;;0.35;0.35;;;22.30;67.80;;;;;;5063544;28;20163;-72
2022/07/07 11:40:27;;;;;;;0.47;0.47;;;22.50;67.30;;;;;;5064930;28;20391;-74
2022/07/07 11:42:53;;;;;;;0.30;0.30;;;22.70;66.60;;;;;;5065173;28;20039;-72
2022/07/07 11:45:18;;;;;;;0.28;0.28;;;22.80;66.10;;;;;;5062300;28;20082;-72
2022/07/07 11:47:44;;;;;;;1.50;0.35;;;23.00;65.90;;;;;;5060118;28;20119;-65
2022/07/07 11:50:10;;;;;;;0.38;0.35;;;23.00;65.00;;;;;;5064450;28;20029;-65
2022/07/07 11:52:36;;;;;;;2.83;0.52;;;22.90;65.00;;;;;;5067455;28;20068;-66
2022/07/07 11:55:05;;;;;;;0.50;0.50;;;22.80;65.20;;;;;;5059509;28;20104;-67
2022/07/07 11:57:33;;;;;;;0.55;0.55;;;22.80;65.90;;;;;;5054238;28;20041;-65
2022/07/07 12:00:24;;;;;;;0.68;0.47;;;22.70;64.90;;;;;;5061477;28;20052;-66
2022/07/07 12:02:52;;;;;;;;;;;22.50;65.30;;;;;;5067548;28;20446;-65
2022/07/07 12:05:23;;;;;;;0.68;0.40;;;22.10;66.70;;;;;;5060971;28;19919;-66
2022/07/07 12:08:15;;;;;;;0.50;0.50;;;22.00;67.50;;;;;;5059775;28;20032;-72
2022/07/07 12:10:50;;;;;;;1.35;0.52;;;22.10;67.70;;;;;;5056196;28;20040;-72
2022/07/07 12:13:16;;;;;;;2.15;0.50;;;22.20;67.40;;;;;;5062254;28;20052;-72
2022/07/07 12:15:49;;;;;;;0.65;0.57;;;22.40;66.70;;;;;;5062300;28;20037;-72
2022/07/07 12:18:24;;;;;;;2.45;0.43;;;22.40;65.90;;;;;;5054617;28;20175;-72
2022/07/07 12:21:21;;;;;;;1.10;0.30;;;22.50;65.00;;;;;;5053496;28;20099;-72
2022/07/07 12:23:50;;;;;;;0.60;0.47;;;22.50;64.20;;;;;;5058530;28;20680;-73
2022/07/07 12:26:20;;;;;;;0.95;0.50;;;22.40;64.00;;;;;;5066091;28;20355;-72
2022/07/07 12:28:46;;;;;;;2.85;0.75;;;22.40;64.10;;;;;;5062712;28;20031;-73
2022/07/07 12:31:19;;;;;;;1.70;0.47;;;22.40;63.50;;;;;;5063578;28;20422;-72
2022/07/07 12:33:45;;;;;;;2.13;0.75;;;22.20;63.80;;;;;;5064727;28;20052;-73
2022/07/07 12:36:21;;;;;;;3.72;1.08;;;22.20;63.80;;;;;;5063695;28;20095;-73
2022/07/07 12:38:59;;;;;;;0.50;0.40;;;22.40;63.10;;;;;;5056949;28;20048;-73
2022/07/07 12:41:32;;;;;;;2.10;0.52;;;22.60;62.80;;;;;;5057250;28;20123;-66
2022/07/07 12:44:19;;;;;;;3.78;1.23;;;23.10;62.00;;;;;;5057007;28;20021;-66
2022/07/07 12:46:45;;;;;;;3.33;0.95;;;23.40;60.90;;;;;;5059370;28;20036;-66
2022/07/07 12:49:12;;;;;;;2.25;0.82;;;23.40;60.60;;;;;;5067769;28;20025;-66
2022/07/07 12:51:41;;;;;;;3.08;0.80;;;23.40;60.70;;;;;;5066683;28;20555;-66
2022/07/07 12:54:29;;;;;;;2.28;0.80;;;23.30;60.90;;;;;;5061944;28;20515;-66
2022/07/07 12:57:04;;;;;;;1.27;0.80;;;23.50;60.40;;;;;;5059180;28;20063;-66
2022/07/07 12:59:38;;;;;;;2.60;0.75;;;23.60;58.90;;;;;;5059497;28;20043;-66